Accueil
METAR-TAF:

METAR-TAF

Aéroports :

Aéroport international Hang Nadim

Batam, Indonésie

latitude: 01-07-15N, longitude: 104-07-07E, altitude: 38 m

Observation

Le bulletin a été fait il y a 2 heures et 53 minutes, à 17:00 UTC
Vent 3 kt de nord-ouest
Température 26°C
Humidité 89%
Pression 1011 hPa
Visibilité 10 km ou plus
Quelques nuages à une hauteur de 1400 ft

METAR: WIDD 241700Z 31003KT 9999 FEW014 26/24 Q1011 NOSIG

Heure: 02:53 (19:53 UTC)

Prévision

Le bulletin a été fait il y a 2 heures et 53 minutes, à 17:00 UTC
Prévision valable du 24 à 18 UTC au 25 à 18 UTC
Vent 5 kt de nord/nord-ouest
Visibilité 10 km ou plus
Quelques nuages à une hauteur de 1400 ft

TAF: WIDD 241700Z 2418/2518 33005KT 9999 FEW014

Observations et prévisions météorologiques de plus de 4000 aéroports (messages METAR et TAF).

Les stations disponibles sont représentées par des disques jaunes et rouges sur la carte.

Passer la souris dessus pour voir le nom de la station.

Cliquer dessus pour voir les observations et prévisions météorologiques.

Pour changer de carte: cliquez sur les boutons verts avec une croix noire pour zoomer, sur le bouton vert avec un tiret pour effectuer un zoom arrière, ou sur les flèches vertes pour les cartes adjacentes.


METAR-TAF: